createdAt,value
2024-02-02T00:07:10.178Z,13.55
2024-02-02T00:12:12.440Z,14.50
2024-02-02T00:17:13.044Z,14.75
2024-02-02T00:22:11.982Z,14.00
2024-02-02T00:27:11.925Z,16.70
2024-02-02T00:32:12.339Z,16.70
2024-02-02T00:37:11.209Z,15.77
2024-02-02T00:42:10.189Z,16.35
2024-02-02T00:47:09.353Z,16.08
2024-02-02T00:52:09.650Z,15.57
2024-02-02T00:57:09.079Z,15.77
2024-02-02T01:02:08.015Z,15.95
2024-02-02T01:07:07.080Z,15.88
2024-02-02T01:12:08.109Z,14.98
2024-02-02T01:17:08.248Z,15.43
2024-02-02T01:22:07.311Z,17.13
2024-02-02T01:27:07.891Z,15.70
2024-02-02T01:32:07.961Z,15.13
2024-02-02T01:37:06.997Z,14.52
2024-02-02T01:42:07.839Z,15.02
2024-02-02T01:47:07.342Z,13.85
2024-02-02T01:52:07.127Z,13.57
2024-02-02T01:57:07.563Z,12.23
2024-02-02T02:02:07.783Z,13.57
2024-02-02T02:07:06.847Z,13.93
2024-02-02T02:12:07.895Z,13.75
2024-02-02T02:17:07.124Z,12.98
2024-02-02T02:22:07.947Z,13.75
2024-02-02T02:27:06.992Z,14.05
2024-02-02T02:32:07.872Z,14.50
2024-02-02T02:37:08.290Z,14.57
2024-02-02T02:42:07.596Z,15.27
2024-02-02T02:47:07.447Z,15.15
2024-02-02T02:52:08.512Z,16.67
2024-02-02T02:57:07.653Z,16.42
2024-02-02T03:02:06.761Z,17.25
2024-02-02T03:07:07.447Z,18.08
2024-02-02T03:12:07.287Z,19.00
2024-02-02T03:17:06.639Z,17.58
2024-02-02T03:22:05.824Z,18.40
2024-02-02T03:27:06.496Z,17.73
2024-02-02T03:32:05.947Z,17.85
2024-02-02T03:37:04.827Z,19.27
2024-02-02T03:42:05.762Z,17.88
2024-02-02T03:47:06.000Z,17.15
2024-02-02T03:52:06.873Z,18.90
2024-02-02T03:57:07.362Z,17.10
2024-02-02T04:02:06.275Z,19.02
2024-02-02T04:07:05.618Z,18.83
2024-02-02T04:12:06.644Z,37.05
2024-02-02T04:17:05.911Z,29.35
2024-02-02T04:22:05.261Z,24.70
2024-02-02T04:27:04.430Z,24.80
2024-02-02T04:32:05.122Z,21.45
2024-02-02T04:37:04.265Z,20.98
2024-02-02T04:42:03.765Z,19.25
2024-02-02T04:47:02.670Z,21.65
2024-02-02T04:52:03.036Z,19.98
2024-02-02T04:57:02.230Z,31.77
2024-02-02T05:02:03.979Z,20.83
2024-02-02T05:07:06.674Z,27.13
2024-02-02T05:12:06.369Z,24.10
2024-02-02T05:17:05.609Z,22.90
2024-02-02T05:22:06.596Z,22.17
2024-02-02T05:27:06.085Z,26.88
2024-02-02T05:32:05.501Z,24.25
2024-02-02T05:37:06.152Z,23.52
2024-02-02T05:42:05.474Z,22.05
2024-02-02T05:47:04.599Z,22.35
2024-02-02T05:52:03.796Z,22.90
2024-02-02T05:57:04.609Z,26.27
2024-02-02T06:02:04.232Z,25.08
2024-02-02T06:07:03.338Z,25.88
2024-02-02T06:12:04.421Z,26.30
2024-02-02T06:17:04.074Z,29.85
2024-02-02T06:22:03.002Z,28.02
2024-02-02T06:27:03.336Z,25.05
2024-02-02T06:32:02.683Z,27.67
2024-02-02T06:37:01.715Z,32.65
2024-02-02T06:42:00.699Z,30.20
2024-02-02T06:47:01.308Z,32.72
2024-02-02T06:52:00.239Z,26.17
2024-02-02T06:56:59.255Z,26.73
2024-02-02T07:01:58.907Z,25.58
2024-02-02T07:06:59.705Z,23.65
2024-02-02T07:12:01.755Z,21.17
2024-02-02T07:17:00.703Z,20.52
2024-02-02T07:22:01.002Z,19.80
2024-02-02T07:27:00.792Z,21.55
2024-02-02T07:31:59.717Z,21.35
2024-02-02T07:37:00.712Z,20.77
2024-02-02T07:42:01.886Z,20.90
2024-02-02T07:47:00.941Z,22.83
2024-02-02T07:52:01.397Z,19.13
2024-02-02T07:57:00.471Z,17.75
2024-02-02T08:01:59.372Z,16.55
2024-02-02T08:06:58.522Z,18.02
2024-02-02T08:11:59.305Z,17.27
2024-02-02T08:16:58.278Z,18.20
2024-02-02T08:21:57.633Z,18.85
2024-02-02T08:26:57.406Z,17.40
2024-02-02T08:31:58.672Z,18.27
2024-02-02T08:36:57.585Z,15.70
2024-02-02T08:41:57.003Z,19.20
2024-02-02T08:46:57.360Z,18.17
2024-02-02T08:51:56.304Z,17.08
2024-02-02T08:57:21.153Z,18.52
2024-02-02T09:02:47.176Z,18.98
2024-02-02T09:07:52.005Z,19.90
2024-02-02T09:12:55.039Z,22.02
2024-02-02T09:17:56.129Z,20.77
2024-02-02T09:23:00.786Z,19.75
2024-02-02T09:27:59.897Z,17.83
2024-02-02T09:33:01.446Z,18.90
2024-02-02T09:38:01.150Z,21.15
2024-02-02T09:43:13.543Z,21.85
2024-02-02T09:48:26.607Z,21.45
2024-02-02T09:54:07.487Z,21.40
2024-02-02T09:59:13.646Z,20.85
2024-02-02T10:04:30.501Z,21.10
2024-02-02T10:09:59.306Z,21.83
2024-02-02T10:15:25.596Z,26.85
2024-02-02T10:20:30.885Z,24.08
2024-02-02T10:25:48.316Z,25.08
2024-02-02T10:30:59.635Z,22.08
2024-02-02T10:36:12.851Z,20.65
2024-02-02T10:41:22.044Z,19.33
2024-02-02T10:46:37.606Z,23.13
2024-02-02T10:51:59.698Z,20.50
2024-02-02T10:57:18.404Z,19.92
2024-02-02T11:02:28.056Z,20.98
2024-02-02T11:07:31.259Z,17.33
2024-02-02T11:12:43.882Z,15.27
2024-02-02T11:17:51.900Z,19.60
2024-02-02T11:23:00.880Z,16.23
2024-02-02T11:28:06.056Z,14.98
2024-02-02T11:33:22.611Z,15.35
2024-02-02T11:38:42.395Z,14.13
2024-02-02T11:43:42.510Z,16.45
2024-02-02T11:48:44.445Z,15.20
2024-02-02T11:54:06.901Z,17.95
2024-02-02T11:59:13.783Z,21.10
2024-02-02T12:04:33.505Z,16.70
2024-02-02T12:09:45.095Z,16.65
2024-02-02T12:14:48.947Z,15.77
2024-02-02T12:19:48.087Z,16.83
2024-02-02T12:24:48.552Z,17.23
2024-02-02T12:29:47.437Z,17.60
2024-02-02T12:34:47.814Z,14.55
2024-02-02T12:39:51.040Z,12.20
2024-02-02T12:44:52.107Z,13.07
2024-02-02T12:49:51.175Z,14.85
2024-02-02T12:54:53.709Z,13.15
2024-02-02T12:59:53.557Z,14.60
2024-02-02T13:04:54.966Z,13.90
2024-02-02T13:09:58.763Z,13.57
2024-02-02T13:15:09.492Z,16.25
2024-02-02T13:20:13.152Z,12.25
2024-02-02T13:25:13.560Z,13.57
2024-02-02T13:30:15.042Z,14.27
2024-02-02T13:35:16.374Z,12.40
2024-02-02T13:40:16.881Z,12.20
2024-02-02T13:45:17.035Z,11.98
2024-02-02T13:50:20.750Z,12.88
2024-02-02T13:55:24.097Z,14.82
2024-02-02T14:00:23.360Z,15.18
2024-02-02T14:05:22.342Z,14.90
2024-02-02T14:10:22.618Z,14.77
2024-02-02T14:15:21.916Z,15.63
2024-02-02T14:20:27.153Z,19.80
2024-02-02T14:25:30.841Z,37.90
2024-02-02T14:30:30.195Z,46.22
2024-02-02T14:35:29.258Z,32.80
2024-02-02T14:40:30.305Z,44.97
2024-02-02T14:45:29.333Z,36.15
2024-02-02T14:50:29.365Z,29.60
2024-02-02T14:55:31.550Z,25.83
2024-02-02T15:00:32.777Z,17.95
2024-02-02T15:05:34.145Z,19.70
2024-02-02T15:10:35.332Z,14.45
2024-02-02T15:15:34.486Z,22.90
2024-02-02T15:20:33.545Z,18.70
2024-02-02T15:25:32.752Z,18.95
2024-02-02T15:30:36.429Z,22.05
2024-02-02T15:40:34.115Z,26.13
2024-02-02T15:45:34.547Z,23.05
2024-02-02T15:50:33.446Z,22.90
2024-02-02T15:55:32.360Z,22.70
2024-02-02T16:00:31.288Z,24.92
2024-02-02T16:05:31.691Z,41.78
2024-02-02T16:10:31.124Z,37.80
2024-02-02T16:15:30.208Z,41.95
2024-02-02T16:20:40.304Z,42.17
2024-02-02T16:25:39.134Z,20.02
2024-02-02T16:30:38.120Z,22.52
2024-02-02T16:35:39.415Z,17.25
2024-02-02T16:40:38.453Z,28.52
2024-02-02T16:45:37.909Z,20.25
2024-02-02T16:50:38.677Z,34.83
2024-02-02T16:55:37.559Z,29.70
2024-02-02T17:00:37.925Z,37.88
2024-02-02T17:05:38.662Z,45.35
2024-02-02T17:10:39.582Z,46.65
2024-02-02T17:15:39.283Z,43.10
2024-02-02T17:20:39.768Z,41.47
2024-02-02T17:25:38.709Z,44.15
2024-02-02T17:30:38.875Z,47.35
2024-02-02T17:35:44.027Z,40.47
2024-02-02T17:40:47.619Z,40.05
2024-02-02T17:45:46.896Z,38.08
2024-02-02T17:50:47.951Z,37.08
2024-02-02T17:55:46.947Z,38.25
2024-02-02T18:00:46.145Z,35.75
2024-02-02T18:05:46.617Z,35.75
2024-02-02T18:10:45.520Z,36.35
2024-02-02T18:15:44.801Z,44.03
2024-02-02T18:20:43.819Z,42.50
2024-02-02T18:25:44.193Z,41.33
2024-02-02T18:30:43.152Z,39.25
2024-02-02T18:35:42.092Z,39.03
2024-02-02T18:40:41.027Z,36.45
2024-02-02T18:45:41.645Z,52.70
2024-02-02T18:50:40.568Z,44.20
2024-02-02T18:55:39.546Z,60.08
2024-02-02T19:00:38.644Z,48.95
2024-02-02T19:05:39.147Z,32.65
2024-02-02T19:10:38.250Z,33.47
2024-02-02T19:15:37.409Z,33.03
2024-02-02T19:20:40.014Z,31.73
2024-02-02T19:25:40.319Z,31.27
2024-02-02T19:30:39.388Z,37.78
2024-02-02T19:35:38.455Z,40.38
2024-02-02T19:40:37.312Z,39.70
2024-02-02T19:45:38.937Z,48.45
2024-02-02T19:50:37.888Z,36.38
2024-02-02T19:55:36.842Z,35.28
2024-02-02T20:00:37.278Z,33.20
2024-02-02T20:05:36.296Z,37.53
2024-02-02T20:10:35.483Z,36.35
2024-02-02T20:15:35.153Z,36.65
2024-02-02T20:20:36.214Z,42.20
2024-02-02T20:25:35.206Z,35.85
2024-02-02T20:30:36.498Z,37.42
2024-02-02T20:35:38.899Z,38.30
2024-02-02T20:40:38.128Z,45.08
2024-02-02T20:45:37.991Z,45.65
2024-02-02T20:50:39.005Z,51.80
2024-02-02T20:55:38.091Z,47.97
2024-02-02T21:00:40.500Z,37.30
2024-02-02T21:05:41.632Z,27.20
2024-02-02T21:10:40.679Z,30.90
2024-02-02T21:15:41.943Z,25.77
2024-02-02T21:20:44.683Z,30.55
2024-02-02T21:25:44.498Z,36.07
2024-02-02T21:30:45.199Z,35.67
2024-02-02T21:35:46.833Z,32.13
2024-02-02T21:40:45.789Z,28.45
2024-02-02T21:45:44.733Z,26.67
2024-02-02T21:50:45.722Z,24.88
2024-02-02T21:55:46.411Z,24.27
2024-02-02T22:00:45.493Z,27.05
2024-02-02T22:05:45.980Z,27.85
2024-02-02T22:10:44.993Z,27.63
2024-02-02T22:15:44.216Z,29.02
2024-02-02T22:20:46.438Z,31.58
2024-02-02T22:25:47.005Z,32.78
2024-02-02T22:30:46.554Z,29.63
2024-02-02T22:35:46.083Z,34.20
2024-02-02T22:40:46.632Z,31.63
2024-02-02T22:45:45.844Z,29.30
2024-02-02T22:50:45.114Z,30.85
2024-02-02T22:55:44.523Z,30.80
2024-02-02T23:00:49.137Z,35.40
2024-02-02T23:05:48.263Z,32.42
2024-02-02T23:10:47.394Z,33.35
2024-02-02T23:15:47.885Z,32.80
2024-02-02T23:20:46.938Z,34.90
2024-02-02T23:25:45.910Z,33.28
2024-02-02T23:30:45.266Z,34.50
2024-02-02T23:35:46.048Z,32.40
2024-02-02T23:40:45.055Z,34.00
2024-02-02T23:45:43.999Z,38.58
2024-02-02T23:50:43.307Z,58.80
2024-02-02T23:55:43.643Z,46.55
